Marshall Army Air Field
KFRI : now visible

Airfield :











YOU CAN JOIN US ON...

 
LOGIN :

Register | Disclaimer

   EN    FR    IT 

 









Legend :    VFR   Marginal VFR   IFR   Intensive IFR   Very Intensive IFR
Visi :
Ceiling :
>= 8 km
>= 3000ft
5 to 8 km
1000 to 3000 ft
1500m to 5 km
500 to 1000 ft
800 to 1500m
200 to 500 ft
< 800m
< 200 ft
Symbols :   Thunderstorms  Fog  Heavy snow  Heavy precipitations  Wind > 20 kt







- Airport Elevation : 1065 ft


KFRI - Marshall Army Air Field

CURRENT METAR :
  • 211857Z AUTO 19015G28KT 10SM CLR 29/12 A2968 RMK AO2 PK WND 19029/20 SLP041 T02900120

EXPIRED METARs :
  • 211756Z AUTO 19022G29KT 10SM CLR 27/12 A2970 RMK AO2 PK WND 18031/32 SLP047 T02690118 10269 20182 55007
  • 211656Z AUTO 19021G26KT 10SM FEW180 26/11 A2972 RMK AO2 PK WND 18032/1559 SLP054 T02550113

TAF TAF KFRI
Valid from the 21 at 00:00 until the 22 at 06:00 UTC


210000Z 2100/2206 18012KT 9999 SKC 510202 QNH2973INS
BECMG 2104/2105 17012KT 9999 FEW250 WS020/19045KT QNH2969INS
BECMG 2114/2115 18015G25KT 9999 SCT150 520302 QNH2967INS
BECMG 2117/2118 18020G35KT 9999 SCT200 510302 QNH2965INS
BECMG 2123/2124 19015KT 9999 FEW030 SCT250 510203 QNH2966INS TX29/2121Z TN13/2110Z LAST NO AMDS AFT 2100 NEXT 2200
KZKC FIR / North America



MET'MAP, your aeronautical weather chart ! - Copyright ORBIFLY December 2007 - Disclaimer

ORBIFLY MET'MAP TEAM :

Programming & Development : Alexandra Zaïnal
Concept & Development : Baudouin d'Aumeries
Co-Development & Prog : Marc-Olivier Méhu
Technical & hardware support : Manuel Goepfert

Contact : metmap@orbifly.com




SOURCES & CREDITS :

   NOAA       Earth
Advisory